Hamilton, Virginia
Current Conditions -  °F | °C
As of 7:15 PM on Wednesday 22 Oct 2014 (Local Time) from KJYO Reporting Station
Overcast Overcast  
Wind Chill: 55°   Ceiling: 4100
Heat Index: 55°   Visibility: 10mi
Dew Point: 48°   Wind: 13mph
Humidity: 77%   Direction: 340°NNW
Pressure: 29.98"   Gusts: 22mph
Location:  39.14°N, 77.67°W
Report Text: KJYO 222315Z AUTO 34011G19KT 10SM BKN041 BKN060 OVC120 13/09 A2998 RMK AO2
Loading
Personal Weather Stations






























Interactive Weather Map
Tropical Storm Tracking
New forecast layout! Learn more

10-Day Weather Forecast

Advertisements
Track Severe Weather on mobile